OMAASAWH

Guest
Details From OMAA - Abu Dhabi Intl
To SAWH - Ushuaia_intl_islas Malvinas
Flight Number -
Tags Generated
Created
Modified
Stats Distance 7,722 nm / 14,301 km
Max Altitude 0 ft / 0 m
Waypoints 6
Social Downloads 1
Likes 0
Share VATSIM

Download

Looking for another format? Having issues loading an existing format? Contact us
Advertisement - Login to hide

Notes

Generated

Route

OMAA GIBIT RABOL KL USU08 SAWH

ID Type Via Altitude Latitude Longitude Leg Dist Tot Dist Heading (true) Name
O OMAA APT - 0 ft / 0 m 24.44439˚ 54.63521˚ - 0 nm - -
GIBIT FIX - 0 ft / 0 m 15.81361˚ 47.63444˚ 651 nm 651 nm 219° / 216° -
RABOL FIX - 0 ft / 0 m 12.98222˚ 45.68861˚ 204 nm 855 nm 214° / 213° -
KL NDB - 0 ft / 0 m -17.63419˚ 24.18179˚ 2237 nm 3092 nm 215° / 216° KATIMA MULILO NDB
USU08 FIX - 0 ft / 0 m -54.87547˚ -68.05660˚ 4619 nm 7712 nm 216° / 282° -
O SAWH APT - 0 ft / 0 m -54.84420˚ -68.31752˚ 9 nm 7721 nm 282° / 282° -

Altitude Profile

Advertisement - Login to hide

Weather


0- 5 10 15 20 25 30 35+ Temperature / ° C

Clouds and Precipitation
Forecast for 2018-05-20 18:00 UTC. Updated 3 hours ago

Ground ~20,000 ft ~40,000 ft Winds

OMAA

Details ICAO OMAA (AUH)
Name ABU DHABI INTL
Region United Arab Emirates
Timezone Asia/Dubai (UTC+4.0)
Stats Elevation 88 ft / 27 m (AMSL)
Location 24.433049° 54.651182°
Runways 1
Magnetic Variation 1.999° E

METAR

OMAA 202000Z 34003KT CAVOK 29/22 Q1007 NOSIG

Decode

TAF

TAF OMAA 201700Z 2018/2200 35006KT CAVOK BECMG 2022/2100 VRB02KT TEMPO 2101/2104 4000 HZ NSC BECMG 2108/2110 33014KT BECMG 2122/2200 07006KT

Decode

Departure Runways

ID Width Length Bearing (true) Bearing (mag) Surface Threshold Offset Overrun Length
13 148 ft / 45 m 13,461 ft / 4,103 m 127.94° 125.94° Asphalt 0 ft / 0 m 180 ft / 55 m
31 148 ft / 45 m 13,461 ft / 4,103 m 307.95° 305.95° Asphalt 0 ft / 0 m 196 ft / 60 m

SAWH

Details ICAO SAWH (USH)
Name Ushuaia_Intl_Islas Malvinas
Region Argentina
Timezone America/Argentina/Ushuaia (UTC-3.0)
Stats Elevation 91 ft / 28 m (AMSL)
Location -54.843310° -68.294897°
Runways 1
Magnetic Variation 12.376° E

METAR

SAWH 202000Z 36004KT 9999 SCT030 06/02 Q9948

Decode

TAF

TAF SAWH 201700Z 2018/2118 30018KT 9999 BKN020 SCT030 TX09/2019Z TN03/2110Z TEMPO 2019/2021 30030KT BECMG 2106/2108 VRB08KT BKN020 BKN025

Decode

Destination Runways

ID Width Length Bearing (true) Bearing (mag) Surface Threshold Offset Overrun Length
07 148 ft / 45 m 9,531 ft / 2,905 m 86.11° 73.73° Concrete 591 ft / 180 m 295 ft / 90 m
25 148 ft / 45 m 9,531 ft / 2,905 m 266.08° 253.70° Concrete 899 ft / 274 m 98 ft / 30 m

Approach Navaids

Runway Type Ident Frequency Range Bearing (true) Bearing (mag) Slope Elevation
25 Localiser US 111.30 MHz 18 nm / 33 km 266.19° 253.81° - 54 ft / 16 m (AMSL)
25 Glidescope US 111.30 MHz 10 nm / 19 km 266.10° 253.72° 3.50° 91 ft / 28 m (AMSL)
25 DME US 111.30 MHz 18 nm / 33 km - - - 92 ft / 28 m (AMSL)

Popular Alternatives